createdAt,value
2022-12-25T00:01:27.105Z,9.60
2022-12-25T00:04:28.693Z,9.70
2022-12-25T00:07:30.657Z,9.70
2022-12-25T00:10:32.346Z,9.60
2022-12-25T00:13:34.039Z,9.70
2022-12-25T00:16:35.687Z,9.60
2022-12-25T00:19:37.359Z,9.60
2022-12-25T00:22:39.037Z,9.60
2022-12-25T00:25:40.999Z,9.60
2022-12-25T00:28:42.848Z,9.60
2022-12-25T00:31:44.569Z,9.50
2022-12-25T00:34:50.372Z,9.50
2022-12-25T00:37:51.927Z,9.50
2022-12-25T00:40:54.083Z,9.50
2022-12-25T00:43:55.650Z,9.50
2022-12-25T00:46:57.446Z,9.50
2022-12-25T00:49:59.266Z,9.40
2022-12-25T00:53:00.886Z,9.40
2022-12-25T00:56:07.170Z,9.40
2022-12-25T00:59:09.084Z,9.40
2022-12-25T01:02:23.470Z,9.30
2022-12-25T01:05:25.215Z,9.30
2022-12-25T01:08:27.594Z,9.30
2022-12-25T01:11:32.920Z,9.30
2022-12-25T01:14:34.514Z,9.40
2022-12-25T01:17:36.389Z,9.30
2022-12-25T01:20:38.029Z,9.30
2022-12-25T01:23:39.646Z,9.30
2022-12-25T01:26:41.215Z,9.40
2022-12-25T01:29:44.865Z,9.40
2022-12-25T01:32:46.429Z,9.40
2022-12-25T01:35:48.043Z,9.50
2022-12-25T01:38:53.730Z,9.50
2022-12-25T01:41:56.184Z,9.50
2022-12-25T01:44:57.727Z,9.50
2022-12-25T01:48:01.108Z,9.50
2022-12-25T01:51:17.121Z,9.50
2022-12-25T01:54:24.341Z,9.50
2022-12-25T01:57:29.220Z,9.50
2022-12-25T02:03:47.985Z,9.40
2022-12-25T02:06:52.118Z,9.40
2022-12-25T02:09:53.925Z,9.40
2022-12-25T02:12:56.740Z,9.40
2022-12-25T02:16:23.273Z,9.40
2022-12-25T02:19:47.990Z,9.40
2022-12-25T02:23:01.728Z,9.40
2022-12-25T02:26:33.069Z,9.30
2022-12-25T02:29:43.600Z,9.30
2022-12-25T02:32:53.103Z,9.20
2022-12-25T02:35:56.828Z,9.20
2022-12-25T02:39:20.477Z,9.20
2022-12-25T02:42:52.523Z,9.10
2022-12-25T02:46:24.948Z,9.10
2022-12-25T02:49:47.232Z,9.10
2022-12-25T02:53:09.218Z,9.10
2022-12-25T02:56:29.866Z,9.10
2022-12-25T02:59:56.152Z,9.10
2022-12-25T03:03:19.034Z,9.20
2022-12-25T03:06:41.230Z,9.10
2022-12-25T03:10:09.042Z,9.20
2022-12-25T03:13:16.766Z,9.20
2022-12-25T03:16:50.506Z,9.20
2022-12-25T03:20:10.759Z,9.20
2022-12-25T03:23:33.712Z,9.20
2022-12-25T03:26:54.071Z,9.20
2022-12-25T03:30:14.494Z,9.20
2022-12-25T03:33:46.422Z,9.20
2022-12-25T03:37:37.262Z,9.30
2022-12-25T03:41:29.909Z,9.30
2022-12-25T03:44:54.224Z,9.30
2022-12-25T03:48:15.929Z,9.30
2022-12-25T03:51:40.162Z,9.30
2022-12-25T03:55:02.581Z,9.30
2022-12-25T03:58:22.988Z,9.40
2022-12-25T04:01:43.759Z,9.40
2022-12-25T04:05:03.879Z,9.50
2022-12-25T04:08:24.286Z,9.50
2022-12-25T04:11:44.571Z,9.50
2022-12-25T04:15:05.008Z,9.50
2022-12-25T04:18:42.075Z,9.60
2022-12-25T04:22:02.483Z,9.50
2022-12-25T04:25:22.855Z,9.50
2022-12-25T04:28:43.264Z,9.60
2022-12-25T04:32:03.664Z,9.50
2022-12-25T04:35:24.028Z,9.50
2022-12-25T04:38:25.591Z,9.60
2022-12-25T04:41:27.262Z,9.70
2022-12-25T04:44:28.842Z,9.70
2022-12-25T04:47:30.578Z,9.70
2022-12-25T04:50:32.155Z,9.70
2022-12-25T04:53:33.739Z,9.70
2022-12-25T04:56:40.024Z,9.70
2022-12-25T04:59:45.185Z,9.70
2022-12-25T05:02:46.975Z,9.70
2022-12-25T05:05:48.824Z,9.80
2022-12-25T05:08:50.505Z,9.80
2022-12-25T05:11:52.124Z,9.80
2022-12-25T05:14:53.808Z,9.70
2022-12-25T05:17:55.401Z,9.60
2022-12-25T05:20:57.056Z,9.60
2022-12-25T05:23:58.660Z,9.60
2022-12-25T05:27:00.270Z,9.70
2022-12-25T05:30:02.270Z,9.80
2022-12-25T05:33:04.009Z,9.70
2022-12-25T05:36:10.734Z,9.80
2022-12-25T05:39:12.399Z,9.70
2022-12-25T05:42:14.017Z,9.60
2022-12-25T05:45:15.646Z,9.60
2022-12-25T05:48:17.631Z,9.60
2022-12-25T05:51:19.303Z,9.70
2022-12-25T05:54:20.994Z,9.70
2022-12-25T05:57:22.539Z,9.70
2022-12-25T06:00:24.115Z,9.80
2022-12-25T06:03:26.057Z,9.80
2022-12-25T06:06:27.697Z,9.90
2022-12-25T06:09:29.420Z,10.00
2022-12-25T06:12:31.002Z,9.90
2022-12-25T06:15:32.823Z,9.90
2022-12-25T06:18:39.285Z,9.90
2022-12-25T06:21:40.858Z,9.80
2022-12-25T06:24:42.505Z,9.80
2022-12-25T06:27:44.192Z,9.90
2022-12-25T06:30:45.806Z,9.80
2022-12-25T06:33:47.945Z,9.80
2022-12-25T06:36:49.528Z,9.70
2022-12-25T06:39:51.115Z,9.70
2022-12-25T06:42:53.124Z,9.60
2022-12-25T06:45:55.360Z,9.60
2022-12-25T06:48:58.537Z,9.60
2022-12-25T06:52:00.141Z,9.60
2022-12-25T06:55:02.329Z,9.50
2022-12-25T06:58:03.908Z,9.50
2022-12-25T07:01:15.323Z,9.60
2022-12-25T07:04:26.999Z,9.70
2022-12-25T07:07:28.604Z,9.70
2022-12-25T07:10:30.164Z,9.80
2022-12-25T07:13:31.933Z,9.80
2022-12-25T07:16:33.651Z,9.70
2022-12-25T07:19:41.109Z,9.70
2022-12-25T07:22:46.196Z,9.70
2022-12-25T07:25:58.532Z,9.80
2022-12-25T07:29:00.144Z,9.80
2022-12-25T07:32:01.823Z,9.90
2022-12-25T07:35:03.667Z,9.90
2022-12-25T07:38:05.321Z,9.90
2022-12-25T07:41:11.698Z,9.90
2022-12-25T07:44:13.481Z,10.00
2022-12-25T07:47:15.183Z,10.10
2022-12-25T07:50:17.167Z,10.10
2022-12-25T07:53:18.737Z,10.10
2022-12-25T07:56:20.537Z,10.20
2022-12-25T07:59:22.184Z,10.20
2022-12-25T08:02:28.422Z,10.20
2022-12-25T08:05:32.655Z,10.20
2022-12-25T08:08:35.227Z,10.20
2022-12-25T08:11:37.488Z,10.20
2022-12-25T08:14:39.227Z,10.20
2022-12-25T08:17:40.823Z,10.10
2022-12-25T08:20:42.438Z,10.00
2022-12-25T08:23:45.500Z,10.10
2022-12-25T08:26:47.329Z,10.10
2022-12-25T08:29:48.893Z,10.20
2022-12-25T08:32:50.524Z,10.30
2022-12-25T08:35:52.213Z,10.30
2022-12-25T08:39:00.422Z,10.30
2022-12-25T08:42:04.691Z,10.40
2022-12-25T08:45:06.738Z,10.40
2022-12-25T08:48:08.321Z,10.30
2022-12-25T08:51:15.631Z,10.40
2022-12-25T08:54:17.217Z,10.30
2022-12-25T08:57:18.787Z,10.30
2022-12-25T09:00:20.543Z,10.40
2022-12-25T09:03:23.208Z,10.50
2022-12-25T09:06:24.860Z,10.50
2022-12-25T09:09:28.301Z,10.40
2022-12-25T09:12:29.887Z,10.30
2022-12-25T09:15:32.026Z,10.20
2022-12-25T09:18:33.776Z,10.10
2022-12-25T09:21:36.647Z,10.10
2022-12-25T09:24:41.087Z,10.20
2022-12-25T09:27:43.617Z,10.30
2022-12-25T09:30:45.814Z,10.30
2022-12-25T09:33:47.552Z,10.40
2022-12-25T09:36:49.157Z,10.50
2022-12-25T09:39:50.725Z,10.60
2022-12-25T09:42:54.639Z,10.40
2022-12-25T09:45:58.926Z,10.60
2022-12-25T09:49:14.506Z,10.60
2022-12-25T09:52:23.879Z,10.70
2022-12-25T09:55:28.557Z,10.70
2022-12-25T09:58:33.033Z,10.50
2022-12-25T10:01:44.468Z,10.40
2022-12-25T10:04:54.318Z,10.30
2022-12-25T10:08:20.282Z,10.40
2022-12-25T10:11:49.092Z,10.40
2022-12-25T10:15:13.718Z,10.60
2022-12-25T10:18:35.377Z,10.70
2022-12-25T10:21:37.768Z,10.70
2022-12-25T10:24:52.019Z,10.80
2022-12-25T10:28:01.809Z,10.80
2022-12-25T10:31:22.334Z,10.90
2022-12-25T10:34:24.150Z,11.10
2022-12-25T10:37:25.767Z,11.30
2022-12-25T10:40:44.114Z,11.50
2022-12-25T10:43:50.152Z,11.70
2022-12-25T10:46:56.021Z,11.70
2022-12-25T10:49:59.044Z,11.80
2022-12-25T10:53:05.159Z,11.80
2022-12-25T10:56:07.445Z,11.80
2022-12-25T10:59:11.228Z,11.60
2022-12-25T11:02:19.970Z,11.50
2022-12-25T11:05:27.970Z,11.40
2022-12-25T11:08:32.008Z,11.30
2022-12-25T11:11:33.872Z,11.20
2022-12-25T11:14:35.488Z,11.20
2022-12-25T11:17:37.169Z,11.10
2022-12-25T11:20:43.776Z,11.00
2022-12-25T11:23:56.279Z,10.90
2022-12-25T11:27:00.553Z,10.90
2022-12-25T11:30:03.927Z,10.90
2022-12-25T11:33:11.383Z,10.90
2022-12-25T11:36:28.364Z,10.90
2022-12-25T11:39:36.420Z,10.90
2022-12-25T11:42:44.098Z,11.00
2022-12-25T11:45:52.341Z,11.10
2022-12-25T11:49:05.535Z,11.20
2022-12-25T11:52:09.925Z,11.20
2022-12-25T11:55:37.043Z,11.20
2022-12-25T11:58:41.178Z,11.30
2022-12-25T12:01:45.960Z,11.10
2022-12-25T12:04:50.879Z,11.00
2022-12-25T12:08:00.222Z,10.90
2022-12-25T12:11:16.683Z,10.90
2022-12-25T12:15:15.147Z,10.90
2022-12-25T12:18:26.649Z,10.90
2022-12-25T12:21:30.333Z,11.00
2022-12-25T12:24:42.072Z,11.10
2022-12-25T12:27:44.099Z,11.10
2022-12-25T12:30:55.600Z,11.30
2022-12-25T12:33:59.056Z,11.50
2022-12-25T12:37:34.200Z,11.60
2022-12-25T12:40:40.850Z,11.90
2022-12-25T12:43:47.555Z,12.20
2022-12-25T12:46:57.147Z,12.50
2022-12-25T12:50:00.625Z,12.50
2022-12-25T12:53:24.263Z,12.60
2022-12-25T12:56:26.075Z,12.80
2022-12-25T12:59:38.627Z,13.00
2022-12-25T13:03:23.195Z,13.20
2022-12-25T13:06:44.836Z,13.20
2022-12-25T13:10:13.658Z,13.30
2022-12-25T13:13:24.336Z,13.10
2022-12-25T13:16:36.205Z,13.10
2022-12-25T13:19:42.009Z,12.90
2022-12-25T13:22:46.502Z,12.80
2022-12-25T13:25:54.363Z,12.70
2022-12-25T13:28:56.550Z,12.70
2022-12-25T13:31:59.788Z,12.60
2022-12-25T13:35:02.473Z,12.60
2022-12-25T13:38:09.916Z,12.60
2022-12-25T13:41:34.615Z,12.50
2022-12-25T13:44:53.552Z,12.50
2022-12-25T13:47:56.060Z,12.60
2022-12-25T13:51:00.024Z,12.60
2022-12-25T13:54:06.793Z,12.50
2022-12-25T13:57:13.121Z,12.50
2022-12-25T14:00:30.003Z,12.50
2022-12-25T14:03:47.633Z,12.40
2022-12-25T14:06:50.014Z,12.40
2022-12-25T14:09:59.904Z,12.40
2022-12-25T14:13:05.416Z,12.30
2022-12-25T14:16:09.021Z,12.30
2022-12-25T14:19:29.199Z,12.40
2022-12-25T14:22:32.529Z,12.40
2022-12-25T14:25:42.889Z,12.40
2022-12-25T14:28:49.083Z,12.40
2022-12-25T14:31:50.895Z,12.40
2022-12-25T14:34:56.408Z,12.30
2022-12-25T14:38:00.627Z,12.30
2022-12-25T14:41:26.099Z,12.30
2022-12-25T14:44:33.480Z,12.20
2022-12-25T14:47:50.358Z,12.20
2022-12-25T14:51:24.881Z,12.20
2022-12-25T14:54:27.301Z,12.10
2022-12-25T14:57:37.534Z,12.00
2022-12-25T15:00:39.863Z,12.00
2022-12-25T15:03:41.855Z,12.00
2022-12-25T15:07:00.377Z,12.00
2022-12-25T15:10:47.227Z,12.00
2022-12-25T15:13:24.052Z,12.00
2022-12-25T15:16:29.709Z,12.00
2022-12-25T15:19:38.251Z,11.90
2022-12-25T15:23:10.279Z,11.80
2022-12-25T15:26:02.279Z,11.70
2022-12-25T15:29:04.099Z,11.70
2022-12-25T15:32:05.689Z,11.70
2022-12-25T15:35:13.120Z,11.70
2022-12-25T15:38:14.799Z,11.60
2022-12-25T15:41:37.626Z,11.60
2022-12-25T15:44:40.586Z,11.60
2022-12-25T15:47:42.148Z,11.60
2022-12-25T15:50:44.331Z,11.60
2022-12-25T15:53:46.003Z,11.60
2022-12-25T15:56:50.896Z,11.50
2022-12-25T15:59:52.495Z,11.50
2022-12-25T16:02:54.356Z,11.60
2022-12-25T16:05:56.444Z,11.60
2022-12-25T16:08:58.045Z,11.60
2022-12-25T16:11:59.625Z,11.60
2022-12-25T16:15:01.503Z,11.60
2022-12-25T16:18:03.516Z,11.50
2022-12-25T16:21:05.316Z,11.50
2022-12-25T16:24:08.345Z,11.50
2022-12-25T16:27:09.929Z,11.50
2022-12-25T16:30:14.481Z,11.40
2022-12-25T16:33:16.082Z,11.40
2022-12-25T16:36:23.475Z,11.40
2022-12-25T16:39:28.319Z,11.40
2022-12-25T16:42:29.928Z,11.40
2022-12-25T16:45:31.517Z,11.30
2022-12-25T16:48:33.141Z,11.30
2022-12-25T16:51:34.771Z,11.30
2022-12-25T16:54:36.510Z,11.30
2022-12-25T16:57:38.086Z,11.30
2022-12-25T17:00:48.904Z,11.30
2022-12-25T17:03:51.843Z,11.30
2022-12-25T17:06:53.456Z,11.30
2022-12-25T17:09:56.961Z,11.30
2022-12-25T17:12:58.557Z,11.30
2022-12-25T17:16:00.291Z,11.30
2022-12-25T17:19:05.333Z,11.30
2022-12-25T17:22:07.378Z,11.30
2022-12-25T17:25:09.284Z,11.30
2022-12-25T17:28:10.903Z,11.30
2022-12-25T17:31:15.882Z,11.30
2022-12-25T17:34:17.544Z,11.30
2022-12-25T17:37:19.256Z,11.30
2022-12-25T17:40:22.639Z,11.30
2022-12-25T17:43:24.335Z,11.30
2022-12-25T17:46:28.889Z,11.20
2022-12-25T17:49:30.562Z,11.20
2022-12-25T17:52:33.509Z,11.20
2022-12-25T17:55:38.796Z,11.20
2022-12-25T17:58:43.168Z,11.10
2022-12-25T18:01:46.775Z,11.10
2022-12-25T18:04:48.648Z,11.10
2022-12-25T18:07:50.325Z,11.10
2022-12-25T18:10:52.240Z,11.00
2022-12-25T18:13:55.327Z,11.00
2022-12-25T18:16:57.168Z,10.90
2022-12-25T18:19:58.741Z,10.90
2022-12-25T18:23:00.719Z,10.90
2022-12-25T18:26:10.577Z,10.90
2022-12-25T18:29:12.362Z,10.90
2022-12-25T18:32:14.137Z,11.00
2022-12-25T18:35:16.445Z,11.00
2022-12-25T18:38:18.069Z,11.00
2022-12-25T18:41:20.909Z,11.00
2022-12-25T18:44:22.524Z,11.00
2022-12-25T18:47:24.138Z,11.00
2022-12-25T18:50:28.460Z,11.00
2022-12-25T18:53:30.799Z,11.00
2022-12-25T18:56:32.480Z,11.00
2022-12-25T18:59:34.083Z,11.00
2022-12-25T19:02:35.778Z,11.00
2022-12-25T19:05:41.261Z,11.10
2022-12-25T19:08:45.971Z,11.00
2022-12-25T19:11:47.761Z,11.10
2022-12-25T19:14:49.546Z,11.10
2022-12-25T19:17:51.147Z,11.10
2022-12-25T19:20:52.721Z,11.10
2022-12-25T19:23:54.553Z,11.10
2022-12-25T19:26:57.232Z,11.10
2022-12-25T19:29:58.849Z,11.10
2022-12-25T19:33:00.479Z,11.10
2022-12-25T19:36:04.148Z,11.10
2022-12-25T19:39:07.792Z,11.10
2022-12-25T19:42:09.423Z,11.10
2022-12-25T19:45:11.405Z,11.10
2022-12-25T19:48:13.016Z,11.10
2022-12-25T19:51:33.348Z,11.10
2022-12-25T19:54:34.917Z,11.20
2022-12-25T19:57:36.519Z,11.20
2022-12-25T20:00:38.433Z,11.20
2022-12-25T20:03:45.929Z,11.20
2022-12-25T20:06:50.933Z,11.20
2022-12-25T20:09:52.490Z,11.20
2022-12-25T20:12:57.149Z,11.20
2022-12-25T20:16:02.193Z,11.10
2022-12-25T20:19:04.387Z,11.10
2022-12-25T20:22:06.125Z,11.10
2022-12-25T20:25:09.703Z,11.10
2022-12-25T20:28:11.270Z,11.10
2022-12-25T20:31:21.654Z,11.10
2022-12-25T20:34:23.394Z,11.10
2022-12-25T20:37:24.980Z,11.10
2022-12-25T20:40:26.565Z,11.10
2022-12-25T20:43:28.539Z,11.10
2022-12-25T20:46:30.290Z,11.10
2022-12-25T20:49:32.534Z,11.00
2022-12-25T20:52:34.198Z,11.10
2022-12-25T20:55:36.039Z,11.10
2022-12-25T20:58:38.235Z,11.10
2022-12-25T21:01:40.077Z,11.00
2022-12-25T21:04:41.779Z,11.00
2022-12-25T21:07:43.504Z,10.90
2022-12-25T21:10:47.619Z,10.90
2022-12-25T21:13:49.613Z,10.90
2022-12-25T21:16:51.338Z,10.90
2022-12-25T21:19:52.967Z,10.90
2022-12-25T21:22:54.569Z,10.90
2022-12-25T21:25:56.195Z,10.90
2022-12-25T21:29:00.299Z,10.90
2022-12-25T21:32:20.504Z,10.90
2022-12-25T21:35:22.095Z,10.90
2022-12-25T21:38:23.649Z,10.90
2022-12-25T21:41:26.872Z,10.90
2022-12-25T21:44:28.503Z,10.90
2022-12-25T21:48:01.685Z,10.90
2022-12-25T21:51:10.344Z,11.00
2022-12-25T21:54:13.041Z,11.00
2022-12-25T21:57:14.591Z,11.00
2022-12-25T22:00:16.317Z,11.00
2022-12-25T22:03:18.946Z,11.00
2022-12-25T22:06:39.366Z,11.00
2022-12-25T22:09:49.565Z,11.00
2022-12-25T22:13:29.686Z,11.00
2022-12-25T22:16:49.812Z,11.00
2022-12-25T22:19:51.775Z,10.90
2022-12-25T22:22:54.074Z,10.90
2022-12-25T22:25:55.884Z,10.90
2022-12-25T22:28:57.464Z,10.90
2022-12-25T22:31:59.151Z,10.90
2022-12-25T22:35:00.850Z,10.80
2022-12-25T22:38:02.451Z,10.80
2022-12-25T22:41:07.371Z,10.90
2022-12-25T22:44:17.866Z,10.90
2022-12-25T22:47:19.971Z,10.90
2022-12-25T22:50:21.555Z,10.90
2022-12-25T22:53:23.177Z,10.90
2022-12-25T22:56:24.773Z,10.90
2022-12-25T22:59:26.775Z,10.90
2022-12-25T23:02:28.731Z,10.90
2022-12-25T23:05:30.466Z,10.90
2022-12-25T23:08:32.060Z,10.90
2022-12-25T23:11:34.604Z,10.90
2022-12-25T23:14:39.236Z,10.90
2022-12-25T23:18:00.316Z,10.90
2022-12-25T23:21:20.689Z,10.90
2022-12-25T23:24:41.057Z,10.90
2022-12-25T23:27:44.623Z,11.00
2022-12-25T23:30:46.207Z,11.00
2022-12-25T23:33:47.912Z,11.00
2022-12-25T23:36:49.751Z,11.10
2022-12-25T23:39:51.524Z,11.10
2022-12-25T23:42:53.263Z,11.20
2022-12-25T23:45:54.870Z,11.30
2022-12-25T23:48:56.565Z,11.30
2022-12-25T23:51:58.192Z,11.30
2022-12-25T23:54:59.777Z,11.30
2022-12-25T23:58:01.452Z,11.30
